createdAt,value
2023-04-15T00:03:34.501Z,10.10
2023-04-15T00:08:38.040Z,9.50
2023-04-15T00:13:41.981Z,9.60
2023-04-15T00:18:44.824Z,10.60
2023-04-15T00:23:52.613Z,10.50
2023-04-15T00:28:55.604Z,9.80
2023-04-15T00:33:58.633Z,10.40
2023-04-15T00:39:02.871Z,10.30
2023-04-15T00:44:07.182Z,10.00
2023-04-15T00:49:09.958Z,11.80
2023-04-15T00:54:12.973Z,11.00
2023-04-15T00:59:15.919Z,11.40
2023-04-15T01:04:18.816Z,9.80
2023-04-15T01:09:22.572Z,10.10
2023-04-15T01:14:25.919Z,9.70
2023-04-15T01:19:28.946Z,11.00
2023-04-15T01:24:33.293Z,10.40
2023-04-15T01:29:38.602Z,11.00
2023-04-15T01:34:41.396Z,12.00
2023-04-15T01:39:44.754Z,10.90
2023-04-15T01:44:47.784Z,12.60
2023-04-15T01:49:50.521Z,11.80
2023-04-15T01:54:53.248Z,12.30
2023-04-15T01:59:56.129Z,11.80
2023-04-15T02:05:00.605Z,12.70
2023-04-15T02:10:04.151Z,11.30
2023-04-15T02:15:08.977Z,11.20
2023-04-15T02:20:12.059Z,14.10
2023-04-15T02:25:17.022Z,13.40
2023-04-15T02:30:19.969Z,12.20
2023-04-15T02:35:25.862Z,12.40
2023-04-15T02:40:29.068Z,11.20
2023-04-15T02:45:31.929Z,13.10
2023-04-15T02:50:34.761Z,13.50
2023-04-15T02:55:37.522Z,13.70
2023-04-15T03:00:40.487Z,13.20
2023-04-15T03:05:44.662Z,12.90
2023-04-15T03:10:47.656Z,12.30
2023-04-15T03:15:50.732Z,12.00
2023-04-15T03:20:53.680Z,14.20
2023-04-15T03:25:58.027Z,11.90
2023-04-15T03:31:01.029Z,14.20
2023-04-15T03:36:04.142Z,21.40
2023-04-15T03:41:07.583Z,31.70
2023-04-15T03:46:10.357Z,23.00
2023-04-15T03:51:13.163Z,18.20
2023-04-15T03:56:16.008Z,13.80
2023-04-15T04:01:19.496Z,14.50
2023-04-15T04:06:22.517Z,12.90
2023-04-15T04:11:25.307Z,13.90
2023-04-15T04:16:28.142Z,13.70
2023-04-15T04:21:31.603Z,12.40
2023-04-15T04:26:34.396Z,11.60
2023-04-15T04:31:37.276Z,14.40
2023-04-15T04:36:40.051Z,14.50
2023-04-15T04:41:42.874Z,13.60
2023-04-15T04:46:45.812Z,12.70
2023-04-15T04:51:48.967Z,11.40
2023-04-15T04:56:51.814Z,13.30
2023-04-15T05:01:54.755Z,11.90
2023-04-15T05:06:59.311Z,11.20
2023-04-15T05:12:03.036Z,12.40
2023-04-15T05:17:05.859Z,12.30
2023-04-15T05:22:08.779Z,11.10
2023-04-15T05:27:11.860Z,12.50
2023-04-15T05:32:14.801Z,12.20
2023-04-15T05:37:17.541Z,10.10
2023-04-15T05:42:20.394Z,11.60
2023-04-15T05:47:23.883Z,10.20
2023-04-15T05:52:27.398Z,10.50
2023-04-15T05:57:30.188Z,9.00
2023-04-15T06:02:33.468Z,11.30
2023-04-15T06:07:37.629Z,9.00
2023-04-15T06:12:40.467Z,11.20
2023-04-15T06:17:43.345Z,9.30
2023-04-15T06:22:46.156Z,11.20
2023-04-15T06:27:48.980Z,9.00
2023-04-15T06:32:52.737Z,9.80
2023-04-15T06:37:55.726Z,10.50
2023-04-15T06:42:58.544Z,8.00
2023-04-15T06:48:01.349Z,7.70
2023-04-15T06:53:04.156Z,7.70
2023-04-15T06:58:07.366Z,10.90
2023-04-15T07:03:11.428Z,7.90
2023-04-15T07:08:14.758Z,7.80
2023-04-15T07:13:17.569Z,6.60
2023-04-15T07:18:20.657Z,7.30
2023-04-15T07:23:23.633Z,7.60
2023-04-15T07:28:26.667Z,6.80
2023-04-15T07:33:29.538Z,5.90
2023-04-15T07:38:32.249Z,6.60
2023-04-15T07:43:35.060Z,6.10
2023-04-15T07:48:37.852Z,6.00
2023-04-15T07:53:40.803Z,6.40
2023-04-15T07:58:43.606Z,6.80
2023-04-15T08:03:47.289Z,5.50
2023-04-15T08:08:50.331Z,5.20
2023-04-15T08:13:53.349Z,4.80
2023-04-15T08:18:56.595Z,5.20
2023-04-15T08:24:00.303Z,8.20
2023-04-15T08:29:03.805Z,6.90
2023-04-15T08:34:06.823Z,6.40
2023-04-15T08:39:09.732Z,6.00
2023-04-15T08:44:12.531Z,17.20
2023-04-15T08:49:15.321Z,8.10
2023-04-15T08:54:18.126Z,8.70
2023-04-15T08:59:22.212Z,4.50
2023-04-15T09:04:25.081Z,4.40
2023-04-15T09:09:27.983Z,3.80
2023-04-15T09:14:32.779Z,4.40
2023-04-15T09:19:35.471Z,3.60
2023-04-15T09:24:40.957Z,3.70
2023-04-15T09:29:43.696Z,3.30
2023-04-15T09:34:46.884Z,3.10
2023-04-15T09:39:52.068Z,3.30
2023-04-15T09:44:55.171Z,8.10
2023-04-15T09:49:59.559Z,4.30
2023-04-15T09:55:02.705Z,4.00
2023-04-15T10:00:08.886Z,3.70
2023-04-15T10:05:12.929Z,3.80
2023-04-15T10:10:16.264Z,3.20
2023-04-15T10:15:19.166Z,3.50
2023-04-15T10:20:22.203Z,4.00
2023-04-15T10:25:25.519Z,3.50
2023-04-15T10:30:28.422Z,3.60
2023-04-15T10:35:32.273Z,2.70
2023-04-15T10:40:35.472Z,3.40
2023-04-15T10:45:38.345Z,3.00
2023-04-15T10:50:41.074Z,3.60
2023-04-15T10:55:43.861Z,4.40
2023-04-15T11:00:52.535Z,3.50
2023-04-15T11:05:56.431Z,3.10
2023-04-15T11:10:59.217Z,2.60
2023-04-15T11:16:02.856Z,3.30
2023-04-15T11:21:07.312Z,3.30
2023-04-15T11:26:12.331Z,2.70
2023-04-15T11:31:20.245Z,4.40
2023-04-15T11:36:27.893Z,4.10
2023-04-15T11:41:31.126Z,3.10
2023-04-15T11:46:33.929Z,5.40
2023-04-15T11:51:37.025Z,4.20
2023-04-15T11:56:39.960Z,3.60
2023-04-15T12:01:44.089Z,3.20
2023-04-15T12:06:47.231Z,3.90
2023-04-15T12:11:55.624Z,5.80
2023-04-15T12:22:06.599Z,3.70
2023-04-15T12:27:15.478Z,5.00
2023-04-15T12:32:21.027Z,6.70
2023-04-15T12:37:24.895Z,4.30
2023-04-15T12:42:28.217Z,4.60
2023-04-15T12:47:31.330Z,4.80
2023-04-15T12:52:34.136Z,2.90
2023-04-15T12:57:36.909Z,2.90
2023-04-15T13:02:40.055Z,3.50
2023-04-15T13:07:43.079Z,2.50
2023-04-15T13:12:50.161Z,2.80
2023-04-15T13:17:53.105Z,5.50
2023-04-15T13:22:56.150Z,2.60
2023-04-15T13:27:59.362Z,4.30
2023-04-15T13:33:02.393Z,3.10
2023-04-15T13:38:05.398Z,3.20
2023-04-15T13:43:08.216Z,3.70
2023-04-15T13:48:11.202Z,1.70
2023-04-15T13:53:14.612Z,2.10
2023-04-15T13:58:17.473Z,3.00
2023-04-15T14:03:20.420Z,3.20
2023-04-15T14:08:23.679Z,2.20
2023-04-15T14:13:26.570Z,3.00
2023-04-15T14:18:30.477Z,2.10
2023-04-15T14:23:33.508Z,2.80
2023-04-15T14:28:38.387Z,1.90
2023-04-15T14:33:41.389Z,1.70
2023-04-15T14:38:44.090Z,1.60
2023-04-15T14:43:46.815Z,2.30
2023-04-15T14:48:49.579Z,2.10
2023-04-15T14:53:52.415Z,2.10
2023-04-15T14:58:55.677Z,1.40
2023-04-15T15:03:58.575Z,1.60
2023-04-15T15:09:02.167Z,1.80
2023-04-15T15:14:05.263Z,1.60
2023-04-15T15:19:08.029Z,1.10
2023-04-15T15:24:11.643Z,0.90
2023-04-15T15:29:14.375Z,1.40
2023-04-15T15:34:17.210Z,3.00
2023-04-15T15:39:19.993Z,1.60
2023-04-15T15:44:22.804Z,1.70
2023-04-15T15:49:26.066Z,1.80
2023-04-15T15:54:29.582Z,1.70
2023-04-15T15:59:33.170Z,2.20
2023-04-15T16:04:36.968Z,2.20
2023-04-15T16:09:41.225Z,1.90
2023-04-15T16:14:44.175Z,2.50
2023-04-15T16:19:58.351Z,2.00
2023-04-15T16:25:05.374Z,2.90
2023-04-15T16:30:09.212Z,2.10
2023-04-15T16:35:12.050Z,3.20
2023-04-15T16:40:15.115Z,1.40
2023-04-15T16:45:18.253Z,2.30
2023-04-15T16:50:21.006Z,2.70
2023-04-15T16:55:24.111Z,2.70
2023-04-15T17:00:27.237Z,3.20
2023-04-15T17:05:32.919Z,3.30
2023-04-15T17:10:36.278Z,4.10
2023-04-15T17:15:40.704Z,3.40
2023-04-15T17:20:43.900Z,3.10
2023-04-15T17:25:47.735Z,3.70
2023-04-15T17:30:51.023Z,2.90
2023-04-15T17:35:53.944Z,2.20
2023-04-15T17:40:56.856Z,2.10
2023-04-15T17:45:59.885Z,2.90
2023-04-15T17:51:02.877Z,2.60
2023-04-15T17:56:06.459Z,3.10
2023-04-15T18:01:09.967Z,2.80
2023-04-15T18:06:13.506Z,2.20
2023-04-15T18:11:17.668Z,2.40
2023-04-15T18:16:21.294Z,2.40
2023-04-15T18:21:25.079Z,2.50
2023-04-15T18:26:28.993Z,2.50
2023-04-15T18:31:33.198Z,2.40
2023-04-15T18:36:36.351Z,2.20
2023-04-15T18:41:39.183Z,2.90
2023-04-15T18:46:42.405Z,3.30
2023-04-15T18:51:45.585Z,2.80
2023-04-15T18:56:48.710Z,2.90
2023-04-15T19:01:51.612Z,3.10
2023-04-15T19:06:55.125Z,1.80
2023-04-15T19:11:57.914Z,3.10
2023-04-15T19:17:01.172Z,2.60
2023-04-15T19:22:04.698Z,3.00
2023-04-15T19:27:08.038Z,2.80
2023-04-15T19:32:10.914Z,2.20
2023-04-15T19:37:14.767Z,3.70
2023-04-15T19:42:18.143Z,2.50
2023-04-15T19:47:21.497Z,1.80
2023-04-15T19:52:24.597Z,2.10
2023-04-15T19:57:27.743Z,3.50
2023-04-15T20:02:30.885Z,4.00
2023-04-15T20:07:33.734Z,2.90
2023-04-15T20:12:49.232Z,3.90
2023-04-15T20:22:59.387Z,4.80
2023-04-15T20:28:02.663Z,3.30
2023-04-15T20:33:07.996Z,2.80
2023-04-15T20:38:11.086Z,3.00
2023-04-15T20:43:13.948Z,2.70
2023-04-15T20:48:16.763Z,2.10
2023-04-15T20:53:19.954Z,2.60
2023-04-15T20:58:22.857Z,3.10
2023-04-15T21:03:25.812Z,4.60
2023-04-15T21:08:31.963Z,2.30
2023-04-15T21:13:34.894Z,3.00
2023-04-15T21:18:37.739Z,3.30
2023-04-15T21:23:42.164Z,2.40
2023-04-15T21:28:44.926Z,4.60
2023-04-15T21:33:47.870Z,2.30
2023-04-15T21:38:50.652Z,4.60
2023-04-15T21:43:53.775Z,2.70
2023-04-15T21:48:56.618Z,3.30
2023-04-15T21:53:59.629Z,2.40
2023-04-15T21:59:02.338Z,3.20
2023-04-15T22:04:07.474Z,2.50
2023-04-15T22:09:13.988Z,3.00
2023-04-15T22:14:17.404Z,4.20
2023-04-15T22:19:20.276Z,3.10
2023-04-15T22:24:33.539Z,2.60
2023-04-15T22:29:42.643Z,3.00
2023-04-15T22:34:45.442Z,4.20
2023-04-15T22:39:49.119Z,2.90
2023-04-15T22:44:52.015Z,2.70
2023-04-15T22:49:54.746Z,3.70
2023-04-15T22:54:57.931Z,3.40
2023-04-15T23:00:00.667Z,3.70
2023-04-15T23:05:11.960Z,4.10
2023-04-15T23:10:16.153Z,3.90
2023-04-15T23:15:19.024Z,4.30
2023-04-15T23:20:21.858Z,3.50
2023-04-15T23:25:24.686Z,4.60
2023-04-15T23:30:27.498Z,4.10
2023-04-15T23:35:30.432Z,4.80
2023-04-15T23:40:33.456Z,4.00
2023-04-15T23:45:36.218Z,5.70
2023-04-15T23:50:39.178Z,5.40
2023-04-15T23:55:41.970Z,7.30
